Richburg, New York
Current Conditions -  °F | °C
As of 2:04 AM on Monday 22 Dec 2014 (Local Time) from KELZ Reporting Station
Scattered Clouds Scattered Clouds  
Wind Chill: 15°   Ceiling: Unl
Heat Index: 23°   Visibility: 10mi
Dew Point: 18°   Wind: 7mph
Humidity: 81%   Direction: 140°SE
Pressure: 30.19"   Gusts: NA
Location:  42.09°N, 78.15°W
Report Text: KELZ 220704Z AUTO 14006KT 10SM SCT009 M05/M08 A3019 RMK AO2 T10501078
Loading
Personal Weather Stations






























Interactive Weather Map New forecast layout! Learn more

10-Day Weather Forecast

Advertisements
Track Severe Weather on mobile